sensor_id;sensor_type;location;lat;lon;timestamp;pressure;altitude;pressure_sealevel;temperature;humidity
21300;BME280;10809;49.476;11.016;2023-03-23T00:00:32;97681.03;;;12.77;45.58
21300;BME280;10809;49.476;11.016;2023-03-23T00:03:03;97682.13;;;12.75;45.71
21300;BME280;10809;49.476;11.016;2023-03-23T00:05:33;97681.38;;;12.73;45.56
21300;BME280;10809;49.476;11.016;2023-03-23T00:08:07;97675.31;;;12.71;45.73
21300;BME280;10809;49.476;11.016;2023-03-23T00:10:42;97679.19;;;12.67;45.67
21300;BME280;10809;49.476;11.016;2023-03-23T00:13:13;97681.19;;;12.63;45.58
21300;BME280;10809;49.476;11.016;2023-03-23T00:15:50;97676.22;;;12.59;45.65
21300;BME280;10809;49.476;11.016;2023-03-23T00:18:22;97672.84;;;12.57;45.92
21300;BME280;10809;49.476;11.016;2023-03-23T00:20:57;97667.03;;;12.52;45.78
21300;BME280;10809;49.476;11.016;2023-03-23T00:23:28;97668.94;;;12.50;45.70
21300;BME280;10809;49.476;11.016;2023-03-23T00:26:05;97675.44;;;12.46;46.09
21300;BME280;10809;49.476;11.016;2023-03-23T00:28:36;97659.75;;;12.43;46.18
21300;BME280;10809;49.476;11.016;2023-03-23T00:31:10;97662.50;;;12.41;46.19
21300;BME280;10809;49.476;11.016;2023-03-23T00:33:43;97640.63;;;12.38;46.37
21300;BME280;10809;49.476;11.016;2023-03-23T00:36:14;97634.34;;;12.39;46.44
21300;BME280;10809;49.476;11.016;2023-03-23T00:38:44;97624.59;;;12.39;46.42
21300;BME280;10809;49.476;11.016;2023-03-23T00:41:17;97642.31;;;12.39;46.36
21300;BME280;10809;49.476;11.016;2023-03-23T00:43:51;97627.44;;;12.36;46.53
21300;BME280;10809;49.476;11.016;2023-03-23T00:46:22;97624.03;;;12.34;46.33
21300;BME280;10809;49.476;11.016;2023-03-23T00:48:52;97635.75;;;12.32;46.53
21300;BME280;10809;49.476;11.016;2023-03-23T00:51:24;97626.91;;;12.31;46.50
21300;BME280;10809;49.476;11.016;2023-03-23T00:53:54;97631.41;;;12.31;46.60
21300;BME280;10809;49.476;11.016;2023-03-23T00:56:25;97635.84;;;12.30;46.49
21300;BME280;10809;49.476;11.016;2023-03-23T00:58:56;97646.38;;;12.32;46.62
21300;BME280;10809;49.476;11.016;2023-03-23T01:01:33;97655.41;;;12.29;46.57
21300;BME280;10809;49.476;11.016;2023-03-23T01:04:04;97653.56;;;12.30;46.75
21300;BME280;10809;49.476;11.016;2023-03-23T01:06:36;97653.81;;;12.27;46.82
21300;BME280;10809;49.476;11.016;2023-03-23T01:09:14;97646.06;;;12.24;46.74
21300;BME280;10809;49.476;11.016;2023-03-23T01:11:45;97641.72;;;12.23;46.80
21300;BME280;10809;49.476;11.016;2023-03-23T01:14:18;97636.53;;;12.21;46.81
21300;BME280;10809;49.476;11.016;2023-03-23T01:16:52;97639.28;;;12.20;47.05
21300;BME280;10809;49.476;11.016;2023-03-23T01:19:25;97635.78;;;12.19;46.87
21300;BME280;10809;49.476;11.016;2023-03-23T01:21:56;97634.09;;;12.18;46.76
21300;BME280;10809;49.476;11.016;2023-03-23T01:24:27;97632.41;;;12.17;46.97
21300;BME280;10809;49.476;11.016;2023-03-23T01:27:16;97628.03;;;12.16;46.67
21300;BME280;10809;49.476;11.016;2023-03-23T01:29:47;97627.09;;;12.17;46.93
21300;BME280;10809;49.476;11.016;2023-03-23T01:32:18;97615.53;;;12.18;47.06
21300;BME280;10809;49.476;11.016;2023-03-23T01:34:48;97618.16;;;12.18;46.85
21300;BME280;10809;49.476;11.016;2023-03-23T01:37:30;97619.03;;;12.19;46.85
21300;BME280;10809;49.476;11.016;2023-03-23T01:40:01;97611.78;;;12.21;47.07
21300;BME280;10809;49.476;11.016;2023-03-23T01:42:36;97612.75;;;12.20;46.80
21300;BME280;10809;49.476;11.016;2023-03-23T01:45:29;97619.75;;;12.21;46.68
21300;BME280;10809;49.476;11.016;2023-03-23T01:48:17;97617.72;;;12.24;46.98
21300;BME280;10809;49.476;11.016;2023-03-23T01:50:59;97617.72;;;12.24;46.89
21300;BME280;10809;49.476;11.016;2023-03-23T01:53:43;97613.28;;;12.25;46.72
21300;BME280;10809;49.476;11.016;2023-03-23T01:56:24;97612.19;;;12.27;46.79
21300;BME280;10809;49.476;11.016;2023-03-23T01:58:57;97608.56;;;12.28;46.75
21300;BME280;10809;49.476;11.016;2023-03-23T02:01:38;97613.75;;;12.30;46.64
21300;BME280;10809;49.476;11.016;2023-03-23T02:04:17;97604.75;;;12.32;46.54
21300;BME280;10809;49.476;11.016;2023-03-23T02:06:48;97603.88;;;12.32;46.66
21300;BME280;10809;49.476;11.016;2023-03-23T02:09:27;97599.44;;;12.32;46.50
21300;BME280;10809;49.476;11.016;2023-03-23T02:11:57;97601.97;;;12.34;46.72
21300;BME280;10809;49.476;11.016;2023-03-23T02:14:31;97594.72;;;12.36;46.70
21300;BME280;10809;49.476;11.016;2023-03-23T02:17:23;97584.97;;;12.36;46.61
21300;BME280;10809;49.476;11.016;2023-03-23T02:20:18;97589.34;;;12.37;46.57
21300;BME280;10809;49.476;11.016;2023-03-23T02:23:16;97572.34;;;12.40;46.58
21300;BME280;10809;49.476;11.016;2023-03-23T02:35:00;97566.69;;;12.44;46.18
21300;BME280;10809;49.476;11.016;2023-03-23T02:37:54;97559.72;;;12.43;46.29
21300;BME280;10809;49.476;11.016;2023-03-23T02:40:38;97562.25;;;12.45;46.37
21300;BME280;10809;49.476;11.016;2023-03-23T02:43:14;97556.81;;;12.46;46.24
21300;BME280;10809;49.476;11.016;2023-03-23T02:45:46;97565.63;;;12.47;46.49
21300;BME280;10809;49.476;11.016;2023-03-23T02:48:19;97555.00;;;12.47;46.40
21300;BME280;10809;49.476;11.016;2023-03-23T02:50:52;97556.72;;;12.48;46.43
21300;BME280;10809;49.476;11.016;2023-03-23T02:53:26;97556.72;;;12.48;46.30
21300;BME280;10809;49.476;11.016;2023-03-23T02:56:12;97554.88;;;12.48;46.31
21300;BME280;10809;49.476;11.016;2023-03-23T02:58:44;97559.25;;;12.49;46.30
21300;BME280;10809;49.476;11.016;2023-03-23T03:04:13;97554.75;;;12.50;46.20
21300;BME280;10809;49.476;11.016;2023-03-23T03:09:50;97562.03;;;12.48;45.83
21300;BME280;10809;49.476;11.016;2023-03-23T03:12:40;97562.97;;;12.47;46.15
21300;BME280;10809;49.476;11.016;2023-03-23T03:15:51;97555.00;;;12.47;46.26
21300;BME280;10809;49.476;11.016;2023-03-23T03:19:20;97548.00;;;12.46;45.97
21300;BME280;10809;49.476;11.016;2023-03-23T03:21:57;97545.47;;;12.44;46.15
21300;BME280;10809;49.476;11.016;2023-03-23T03:24:43;97542.06;;;12.42;46.07
21300;BME280;10809;49.476;11.016;2023-03-23T03:27:18;97532.53;;;12.40;46.27
21300;BME280;10809;49.476;11.016;2023-03-23T03:29:58;97535.31;;;12.38;46.20
21300;BME280;10809;49.476;11.016;2023-03-23T03:32:34;97533.59;;;12.37;46.22
21300;BME280;10809;49.476;11.016;2023-03-23T03:35:09;97529.22;;;12.36;46.14
21300;BME280;10809;49.476;11.016;2023-03-23T03:37:43;97532.84;;;12.35;46.25
21300;BME280;10809;49.476;11.016;2023-03-23T03:40:17;97538.28;;;12.34;46.24
21300;BME280;10809;49.476;11.016;2023-03-23T03:42:48;97529.56;;;12.32;46.25
21300;BME280;10809;49.476;11.016;2023-03-23T03:45:19;97527.88;;;12.31;46.22
21300;BME280;10809;49.476;11.016;2023-03-23T03:47:56;97535.97;;;12.29;46.14
21300;BME280;10809;49.476;11.016;2023-03-23T03:50:27;97533.53;;;12.26;46.29
21300;BME280;10809;49.476;11.016;2023-03-23T03:53:07;97536.41;;;12.23;46.25
21300;BME280;10809;49.476;11.016;2023-03-23T03:55:38;97538.31;;;12.21;46.14
21300;BME280;10809;49.476;11.016;2023-03-23T03:58:11;97540.25;;;12.19;46.19
21300;BME280;10809;49.476;11.016;2023-03-23T04:00:55;97542.19;;;12.17;46.15
21300;BME280;10809;49.476;11.016;2023-03-23T04:03:30;97541.56;;;12.14;46.35
21300;BME280;10809;49.476;11.016;2023-03-23T04:06:13;97539.13;;;12.11;46.26
21300;BME280;10809;49.476;11.016;2023-03-23T04:08:43;97532.25;;;12.08;46.19
21300;BME280;10809;49.476;11.016;2023-03-23T04:11:21;97531.50;;;12.06;46.52
21300;BME280;10809;49.476;11.016;2023-03-23T04:13:52;97536.06;;;12.04;46.52
21300;BME280;10809;49.476;11.016;2023-03-23T04:16:28;97540.56;;;12.04;46.40
21300;BME280;10809;49.476;11.016;2023-03-23T04:19:01;97538.84;;;12.03;46.61
21300;BME280;10809;49.476;11.016;2023-03-23T04:21:31;97547.88;;;12.00;46.54
21300;BME280;10809;49.476;11.016;2023-03-23T04:24:06;97543.53;;;11.99;46.78
21300;BME280;10809;49.476;11.016;2023-03-23T04:26:45;97547.13;;;11.98;46.63
21300;BME280;10809;49.476;11.016;2023-03-23T04:29:25;97546.31;;;11.98;46.87
21300;BME280;10809;49.476;11.016;2023-03-23T04:32:35;97541.00;;;11.98;46.81
21300;BME280;10809;49.476;11.016;2023-03-23T04:35:13;97548.97;;;11.98;46.90
21300;BME280;10809;49.476;11.016;2023-03-23T04:37:50;97547.13;;;11.98;46.96
21300;BME280;10809;49.476;11.016;2023-03-23T04:40:24;97541.00;;;11.98;47.15
21300;BME280;10809;49.476;11.016;2023-03-23T04:43:22;97538.34;;;11.98;46.93
21300;BME280;10809;49.476;11.016;2023-03-23T04:45:59;97540.03;;;11.99;47.04
21300;BME280;10809;49.476;11.016;2023-03-23T04:48:35;97540.03;;;11.99;47.14
21300;BME280;10809;49.476;11.016;2023-03-23T04:51:22;97540.03;;;11.99;47.21
21300;BME280;10809;49.476;11.016;2023-03-23T04:53:55;97550.53;;;12.00;47.12
21300;BME280;10809;49.476;11.016;2023-03-23T04:56:27;97547.03;;;12.00;46.96
21300;BME280;10809;49.476;11.016;2023-03-23T04:59:00;97544.38;;;12.00;47.12
21300;BME280;10809;49.476;11.016;2023-03-23T05:01:41;97554.16;;;11.99;47.35
21300;BME280;10809;49.476;11.016;2023-03-23T05:04:26;97542.69;;;11.99;47.10
21300;BME280;10809;49.476;11.016;2023-03-23T05:07:10;97540.88;;;11.99;47.23
21300;BME280;10809;49.476;11.016;2023-03-23T05:09:47;97544.47;;;11.98;47.19
21300;BME280;10809;49.476;11.016;2023-03-23T05:12:19;97543.53;;;11.99;47.51
21300;BME280;10809;49.476;11.016;2023-03-23T05:15:00;97541.94;;;11.97;47.07
21300;BME280;10809;49.476;11.016;2023-03-23T05:17:34;97537.59;;;11.96;47.24
21300;BME280;10809;49.476;11.016;2023-03-23T05:20:11;97535.91;;;11.95;47.45
21300;BME280;10809;49.476;11.016;2023-03-23T05:22:47;97531.56;;;11.94;47.52
21300;BME280;10809;49.476;11.016;2023-03-23T05:25:26;97531.56;;;11.94;47.20
21300;BME280;10809;49.476;11.016;2023-03-23T05:28:10;97529.00;;;11.92;47.44
21300;BME280;10809;49.476;11.016;2023-03-23T05:31:09;97528.06;;;11.93;47.37
21300;BME280;10809;49.476;11.016;2023-03-23T05:33:43;97521.06;;;11.92;47.38
21300;BME280;10809;49.476;11.016;2023-03-23T05:36:36;97521.06;;;11.92;47.16
21300;BME280;10809;49.476;11.016;2023-03-23T05:39:31;97537.81;;;11.93;47.46
21300;BME280;10809;49.476;11.016;2023-03-23T05:42:35;97529.88;;;11.93;47.45
21300;BME280;10809;49.476;11.016;2023-03-23T05:45:20;97527.22;;;11.93;47.70
21300;BME280;10809;49.476;11.016;2023-03-23T05:47:54;97514.69;;;11.95;47.57
21300;BME280;10809;49.476;11.016;2023-03-23T05:50:25;97513.72;;;11.96;47.81
21300;BME280;10809;49.476;11.016;2023-03-23T05:52:56;97520.72;;;11.97;47.56
21300;BME280;10809;49.476;11.016;2023-03-23T05:55:28;97527.75;;;11.98;47.53
21300;BME280;10809;49.476;11.016;2023-03-23T05:58:18;97534.63;;;12.00;47.76
21300;BME280;10809;49.476;11.016;2023-03-23T06:00:50;97527.50;;;12.01;47.92
21300;BME280;10809;49.476;11.016;2023-03-23T06:03:41;97531.72;;;12.03;47.64
21300;BME280;10809;49.476;11.016;2023-03-23T06:06:27;97539.47;;;12.06;47.67
21300;BME280;10809;49.476;11.016;2023-03-23T06:09:25;97541.03;;;12.09;47.70
21300;BME280;10809;49.476;11.016;2023-03-23T06:12:14;97542.63;;;12.11;47.87
21300;BME280;10809;49.476;11.016;2023-03-23T06:14:52;97534.44;;;12.14;47.83
21300;BME280;10809;49.476;11.016;2023-03-23T06:17:29;97533.38;;;12.17;47.82
21300;BME280;10809;49.476;11.016;2023-03-23T06:20:00;97531.34;;;12.20;47.77
21300;BME280;10809;49.476;11.016;2023-03-23T06:22:34;97533.88;;;12.22;47.76
21300;BME280;10809;49.476;11.016;2023-03-23T06:25:16;97531.13;;;12.23;47.72
21300;BME280;10809;49.476;11.016;2023-03-23T06:27:48;97534.47;;;12.25;47.62
21300;BME280;10809;49.476;11.016;2023-03-23T06:30:19;97537.00;;;12.27;47.85
21300;BME280;10809;49.476;11.016;2023-03-23T06:32:49;97543.06;;;12.29;47.84
21300;BME280;10809;49.476;11.016;2023-03-23T06:35:27;97547.41;;;12.30;47.79
21300;BME280;10809;49.476;11.016;2023-03-23T06:38:16;97545.50;;;12.32;47.77
21300;BME280;10809;49.476;11.016;2023-03-23T06:41:00;97549.81;;;12.33;48.11
21300;BME280;10809;49.476;11.016;2023-03-23T06:43:35;97548.88;;;12.34;47.83
21300;BME280;10809;49.476;11.016;2023-03-23T06:46:27;97551.31;;;12.37;47.88
21300;BME280;10809;49.476;11.016;2023-03-23T06:49:21;97556.53;;;12.38;48.01
21300;BME280;10809;49.476;11.016;2023-03-23T06:52:01;97551.00;;;12.41;47.90
21300;BME280;10809;49.476;11.016;2023-03-23T06:54:33;97552.56;;;12.44;48.05
21300;BME280;10809;49.476;11.016;2023-03-23T06:57:05;97556.72;;;12.48;48.13
21300;BME280;10809;49.476;11.016;2023-03-23T06:59:36;97557.19;;;12.53;48.06
21300;BME280;10809;49.476;11.016;2023-03-23T07:02:12;97549.72;;;12.58;48.19
21300;BME280;10809;49.476;11.016;2023-03-23T07:04:48;97554.47;;;12.65;48.10
21300;BME280;10809;49.476;11.016;2023-03-23T07:07:24;97555.69;;;12.72;48.16
21300;BME280;10809;49.476;11.016;2023-03-23T07:10:16;97560.28;;;12.81;48.17
21300;BME280;10809;49.476;11.016;2023-03-23T07:12:46;97560.66;;;12.88;48.17
21300;BME280;10809;49.476;11.016;2023-03-23T07:15:17;97567.09;;;12.96;48.24
21300;BME280;10809;49.476;11.016;2023-03-23T07:17:52;97559.38;;;13.04;48.10
21300;BME280;10809;49.476;11.016;2023-03-23T07:20:51;97568.34;;;13.15;48.03
21300;BME280;10809;49.476;11.016;2023-03-23T07:26:11;97569.69;;;13.31;47.71
21300;BME280;10809;49.476;11.016;2023-03-23T07:28:52;97575.47;;;13.36;47.56
21300;BME280;10809;49.476;11.016;2023-03-23T07:31:27;97573.41;;;13.40;47.37
21300;BME280;10809;49.476;11.016;2023-03-23T07:34:00;97572.28;;;13.44;47.54
21300;BME280;10809;49.476;11.016;2023-03-23T07:36:41;97570.31;;;13.46;47.27
21300;BME280;10809;49.476;11.016;2023-03-23T07:39:14;97581.69;;;13.48;47.23
21300;BME280;10809;49.476;11.016;2023-03-23T07:41:48;97574.69;;;13.47;47.28
21300;BME280;10809;49.476;11.016;2023-03-23T07:44:25;97580.81;;;13.47;47.20
21300;BME280;10809;49.476;11.016;2023-03-23T07:46:56;97584.34;;;13.48;47.20
21300;BME280;10809;49.476;11.016;2023-03-23T07:49:34;97579.03;;;13.48;47.41
21300;BME280;10809;49.476;11.016;2023-03-23T07:52:16;97591.47;;;13.47;47.63
21300;BME280;10809;49.476;11.016;2023-03-23T07:54:48;97590.53;;;13.48;47.71
21300;BME280;10809;49.476;11.016;2023-03-23T07:57:28;97584.97;;;13.51;47.90
21300;BME280;10809;49.476;11.016;2023-03-23T08:00:00;97584.84;;;13.53;48.02
21300;BME280;10809;49.476;11.016;2023-03-23T08:02:33;97583.75;;;13.55;48.39
21300;BME280;10809;49.476;11.016;2023-03-23T08:05:33;97588.81;;;13.58;48.10
21300;BME280;10809;49.476;11.016;2023-03-23T08:08:22;97588.69;;;13.60;48.42
21300;BME280;10809;49.476;11.016;2023-03-23T08:11:26;97593.91;;;13.61;48.24
21300;BME280;10809;49.476;11.016;2023-03-23T08:14:15;97600.06;;;13.62;48.55
21300;BME280;10809;49.476;11.016;2023-03-23T08:17:12;97606.22;;;13.62;48.59
21300;BME280;10809;49.476;11.016;2023-03-23T08:20:01;97611.53;;;13.62;48.64
21300;BME280;10809;49.476;11.016;2023-03-23T08:22:57;97608.19;;;13.60;48.77
21300;BME280;10809;49.476;11.016;2023-03-23T08:25:51;97616.28;;;13.59;49.07
21300;BME280;10809;49.476;11.016;2023-03-23T08:28:59;97612.88;;;13.57;48.87
21300;BME280;10809;49.476;11.016;2023-03-23T08:31:48;97614.81;;;13.55;49.06
21300;BME280;10809;49.476;11.016;2023-03-23T08:34:40;97621.34;;;13.51;49.04
21300;BME280;10809;49.476;11.016;2023-03-23T08:37:30;97617.94;;;13.49;49.35
21300;BME280;10809;49.476;11.016;2023-03-23T08:40:21;97613.84;;;13.45;49.48
21300;BME280;10809;49.476;11.016;2023-03-23T08:42:52;97620.13;;;13.44;49.58
21300;BME280;10809;49.476;11.016;2023-03-23T08:45:35;97620.19;;;13.42;49.48
21300;BME280;10809;49.476;11.016;2023-03-23T08:48:08;97618.50;;;13.41;49.53
21300;BME280;10809;49.476;11.016;2023-03-23T08:50:51;97622.97;;;13.41;49.33
21300;BME280;10809;49.476;11.016;2023-03-23T08:53:39;97625.63;;;13.41;49.48
21300;BME280;10809;49.476;11.016;2023-03-23T08:56:42;97631.06;;;13.39;49.46
21300;BME280;10809;49.476;11.016;2023-03-23T08:59:44;97635.31;;;13.42;49.62
21300;BME280;10809;49.476;11.016;2023-03-23T09:02:28;97633.50;;;13.42;49.49
21300;BME280;10809;49.476;11.016;2023-03-23T09:05:13;97639.66;;;13.43;49.51
21300;BME280;10809;49.476;11.016;2023-03-23T09:08:03;97644.91;;;13.44;49.79
21300;BME280;10809;49.476;11.016;2023-03-23T09:10:34;97639.34;;;13.47;49.95
21300;BME280;10809;49.476;11.016;2023-03-23T09:13:04;97636.44;;;13.50;50.07
21300;BME280;10809;49.476;11.016;2023-03-23T09:15:38;97638.84;;;13.53;50.27
21300;BME280;10809;49.476;11.016;2023-03-23T09:18:08;97653.50;;;13.59;50.18
21300;BME280;10809;49.476;11.016;2023-03-23T09:20:39;97655.81;;;13.63;50.36
21300;BME280;10809;49.476;11.016;2023-03-23T09:23:10;97648.28;;;13.68;50.25
21300;BME280;10809;49.476;11.016;2023-03-23T09:25:43;97645.28;;;13.73;50.11
21300;BME280;10809;49.476;11.016;2023-03-23T09:28:17;97642.13;;;13.79;50.11
21300;BME280;10809;49.476;11.016;2023-03-23T09:30:54;97649.75;;;13.83;49.79
21300;BME280;10809;49.476;11.016;2023-03-23T09:33:28;97649.25;;;13.89;49.84
21300;BME280;10809;49.476;11.016;2023-03-23T09:36:03;97654.13;;;13.95;49.48
21300;BME280;10809;49.476;11.016;2023-03-23T09:38:35;97659.09;;;14.00;49.50
21300;BME280;10809;49.476;11.016;2023-03-23T09:47:32;97655.78;;;14.18;49.18
21300;BME280;10809;49.476;11.016;2023-03-23T09:50:17;97653.59;;;14.23;48.94
21300;BME280;10809;49.476;11.016;2023-03-23T09:52:55;97647.03;;;14.27;49.17
21300;BME280;10809;49.476;11.016;2023-03-23T09:55:30;97654.53;;;14.33;49.11
21300;BME280;10809;49.476;11.016;2023-03-23T09:58:52;97654.91;;;14.40;48.86
21300;BME280;10809;49.476;11.016;2023-03-23T10:01:44;97664.22;;;14.45;48.68
21300;BME280;10809;49.476;11.016;2023-03-23T10:04:25;97670.88;;;14.51;48.61
21300;BME280;10809;49.476;11.016;2023-03-23T10:09:57;97675.72;;;14.57;48.55
21300;BME280;10809;49.476;11.016;2023-03-23T10:12:52;97679.94;;;14.59;48.23
21300;BME280;10809;49.476;11.016;2023-03-23T10:15:31;97674.47;;;14.61;48.30
21300;BME280;10809;49.476;11.016;2023-03-23T10:21:22;97680.66;;;14.61;48.39
21300;BME280;10809;49.476;11.016;2023-03-23T10:24:00;97694.00;;;14.61;48.54
21300;BME280;10809;49.476;11.016;2023-03-23T10:30:15;97698.84;;;14.56;48.40
21300;BME280;10809;49.476;11.016;2023-03-23T10:32:59;97703.59;;;14.53;48.28
21300;BME280;10809;49.476;11.016;2023-03-23T10:35:48;97710.97;;;14.49;48.17
21300;BME280;10809;49.476;11.016;2023-03-23T10:41:47;97708.81;;;14.43;48.43
21300;BME280;10809;49.476;11.016;2023-03-23T10:44:24;97716.03;;;14.41;48.58
21300;BME280;10809;49.476;11.016;2023-03-23T10:47:02;97709.97;;;14.39;48.91
21300;BME280;10809;49.476;11.016;2023-03-23T10:49:43;97713.63;;;14.38;48.72
21300;BME280;10809;49.476;11.016;2023-03-23T10:52:33;97720.03;;;14.36;48.73
21300;BME280;10809;49.476;11.016;2023-03-23T10:55:22;97715.66;;;14.35;48.94
21300;BME280;10809;49.476;11.016;2023-03-23T10:58:03;97713.84;;;14.35;49.37
21300;BME280;10809;49.476;11.016;2023-03-23T11:00:44;97719.19;;;14.35;49.18
21300;BME280;10809;49.476;11.016;2023-03-23T11:05:54;97730.81;;;14.34;49.40
21300;BME280;10809;49.476;11.016;2023-03-23T11:14:33;97729.34;;;14.30;49.22
21300;BME280;10809;49.476;11.016;2023-03-23T11:17:18;97732.00;;;14.30;49.89
21300;BME280;10809;49.476;11.016;2023-03-23T11:19:52;97733.97;;;14.28;49.84
21300;BME280;10809;49.476;11.016;2023-03-23T11:22:27;97734.22;;;14.25;49.46
21300;BME280;10809;49.476;11.016;2023-03-23T11:25:05;97729.84;;;14.24;49.75
21300;BME280;10809;49.476;11.016;2023-03-23T11:27:38;97740.59;;;14.23;49.89
21300;BME280;10809;49.476;11.016;2023-03-23T11:30:25;97739.78;;;14.22;49.83
21300;BME280;10809;49.476;11.016;2023-03-23T11:33:01;97731.06;;;14.20;49.71
21300;BME280;10809;49.476;11.016;2023-03-23T11:35:44;97734.69;;;14.19;49.86
21300;BME280;10809;49.476;11.016;2023-03-23T11:38:23;97736.50;;;14.19;49.89
21300;BME280;10809;49.476;11.016;2023-03-23T11:40:58;97740.97;;;14.18;50.09
21300;BME280;10809;49.476;11.016;2023-03-23T11:43:29;97736.63;;;14.17;50.33
21300;BME280;10809;49.476;11.016;2023-03-23T11:49:55;97738.94;;;14.22;50.33
21300;BME280;10809;49.476;11.016;2023-03-23T11:52:40;97736.16;;;14.23;50.24
21300;BME280;10809;49.476;11.016;2023-03-23T11:55:25;97735.91;;;14.26;50.46
21300;BME280;10809;49.476;11.016;2023-03-23T11:58:07;97741.22;;;14.26;50.50
21300;BME280;10809;49.476;11.016;2023-03-23T12:01:04;97740.25;;;14.27;50.52
21300;BME280;10809;49.476;11.016;2023-03-23T12:03:48;97741.22;;;14.26;50.49
21300;BME280;10809;49.476;11.016;2023-03-23T12:06:50;97733.25;;;14.26;50.78
21300;BME280;10809;49.476;11.016;2023-03-23T12:15:22;97715.09;;;14.31;51.08
21300;BME280;10809;49.476;11.016;2023-03-23T12:18:14;97721.72;;;14.37;50.79
21300;BME280;10809;49.476;11.016;2023-03-23T12:27:29;97700.56;;;14.57;50.72
21300;BME280;10809;49.476;11.016;2023-03-23T12:30:13;97696.41;;;14.64;51.11
21300;BME280;10809;49.476;11.016;2023-03-23T12:33:01;97696.63;;;14.73;50.97
21300;BME280;10809;49.476;11.016;2023-03-23T12:35:47;97687.16;;;14.80;51.24
21300;BME280;10809;49.476;11.016;2023-03-23T12:41:11;97700.31;;;14.92;50.87
21300;BME280;10809;49.476;11.016;2023-03-23T12:49:10;97701.72;;;15.07;50.67
21300;BME280;10809;49.476;11.016;2023-03-23T12:52:14;97714.66;;;15.12;50.38
21300;BME280;10809;49.476;11.016;2023-03-23T12:54:56;97700.22;;;15.14;50.38
21300;BME280;10809;49.476;11.016;2023-03-23T12:57:49;97694.50;;;15.19;50.46
21300;BME280;10809;49.476;11.016;2023-03-23T13:06:23;97708.63;;;15.30;50.34
21300;BME280;10809;49.476;11.016;2023-03-23T13:09:02;97711.88;;;15.34;50.08
21300;BME280;10809;49.476;11.016;2023-03-23T13:11:38;97713.47;;;15.36;49.83
21300;BME280;10809;49.476;11.016;2023-03-23T13:17:58;97705.09;;;15.41;49.80
21300;BME280;10809;49.476;11.016;2023-03-23T13:20:38;97695.13;;;15.43;49.86
21300;BME280;10809;49.476;11.016;2023-03-23T13:23:38;97704.84;;;15.44;49.78
21300;BME280;10809;49.476;11.016;2023-03-23T13:26:20;97705.53;;;15.46;49.74
21300;BME280;10809;49.476;11.016;2023-03-23T13:29:00;97716.06;;;15.47;49.63
21300;BME280;10809;49.476;11.016;2023-03-23T13:31:36;97702.63;;;15.49;49.86
21300;BME280;10809;49.476;11.016;2023-03-23T13:34:29;97697.16;;;15.50;49.65
21300;BME280;10809;49.476;11.016;2023-03-23T13:37:12;97705.75;;;15.54;49.49
21300;BME280;10809;49.476;11.016;2023-03-23T13:39:55;97694.13;;;15.55;49.38
21300;BME280;10809;49.476;11.016;2023-03-23T13:42:33;97685.00;;;15.57;49.77
21300;BME280;10809;49.476;11.016;2023-03-23T13:48:18;97685.75;;;15.69;49.79
21300;BME280;10809;49.476;11.016;2023-03-23T13:50:54;97679.19;;;15.73;49.57
21300;BME280;10809;49.476;11.016;2023-03-23T13:56:48;97667.00;;;15.80;49.30
21300;BME280;10809;49.476;11.016;2023-03-23T13:59:46;97664.06;;;15.83;49.08
21300;BME280;10809;49.476;11.016;2023-03-23T14:02:40;97662.94;;;15.85;49.02
21300;BME280;10809;49.476;11.016;2023-03-23T14:08:14;97671.66;;;15.87;49.02
21300;BME280;10809;49.476;11.016;2023-03-23T14:10:56;97664.50;;;15.88;48.90
21300;BME280;10809;49.476;11.016;2023-03-23T14:13:41;97660.84;;;15.89;48.99
21300;BME280;10809;49.476;11.016;2023-03-23T14:16:25;97660.84;;;15.89;48.83
21300;BME280;10809;49.476;11.016;2023-03-23T14:19:01;97646.50;;;15.90;48.64
21300;BME280;10809;49.476;11.016;2023-03-23T14:21:38;97652.84;;;15.89;48.93
21300;BME280;10809;49.476;11.016;2023-03-23T14:24:13;97660.00;;;15.88;48.80
21300;BME280;10809;49.476;11.016;2023-03-23T14:27:01;97652.97;;;15.87;48.60
21300;BME280;10809;49.476;11.016;2023-03-23T14:29:32;97650.44;;;15.86;48.84
21300;BME280;10809;49.476;11.016;2023-03-23T14:32:05;97645.22;;;15.84;48.84
21300;BME280;10809;49.476;11.016;2023-03-23T14:34:36;97634.69;;;15.83;48.77
21300;BME280;10809;49.476;11.016;2023-03-23T14:37:11;97648.03;;;15.83;48.88
21300;BME280;10809;49.476;11.016;2023-03-23T14:39:52;97643.53;;;15.83;49.07
21300;BME280;10809;49.476;11.016;2023-03-23T14:42:30;97647.91;;;15.84;48.88
21300;BME280;10809;49.476;11.016;2023-03-23T14:45:10;97651.44;;;15.85;49.04
21300;BME280;10809;49.476;11.016;2023-03-23T14:47:59;97658.56;;;15.84;49.26
21300;BME280;10809;49.476;11.016;2023-03-23T14:50:38;97661.25;;;15.84;49.12
21300;BME280;10809;49.476;11.016;2023-03-23T14:53:24;97656.19;;;15.81;48.88
21300;BME280;10809;49.476;11.016;2023-03-23T14:55:55;97651.97;;;15.79;48.69
21300;BME280;10809;49.476;11.016;2023-03-23T14:58:29;97658.38;;;15.76;48.62
21300;BME280;10809;49.476;11.016;2023-03-23T15:01:07;97658.66;;;15.73;48.76
21300;BME280;10809;49.476;11.016;2023-03-23T15:03:53;97657.25;;;15.69;48.86
21300;BME280;10809;49.476;11.016;2023-03-23T15:06:30;97664.53;;;15.67;48.91
21300;BME280;10809;49.476;11.016;2023-03-23T15:09:31;97659.59;;;15.63;48.95
21300;BME280;10809;49.476;11.016;2023-03-23T15:12:06;97659.03;;;15.59;48.89
21300;BME280;10809;49.476;11.016;2023-03-23T15:14:45;97669.09;;;15.56;48.92
21300;BME280;10809;49.476;11.016;2023-03-23T15:17:34;97673.16;;;15.50;49.03
21300;BME280;10809;49.476;11.016;2023-03-23T15:20:29;97662.03;;;15.45;48.87
21300;BME280;10809;49.476;11.016;2023-03-23T15:23:16;97673.91;;;15.41;48.97
21300;BME280;10809;49.476;11.016;2023-03-23T15:25:50;97664.50;;;15.37;48.96